Skip Navigation Links
NOAA logo - Click to go to the NOAA homepage
NOAA's National Weather Service
Alaska Aviation Weather Unit
  NWS logo - Click to go to the NWS homepage
Left Navbar Graphic     00 AKDT = 08 GMT

   
NOAA is celebrating 200 years of science, service, and stewardship. Visit the NOAA 200th celebration Web site to learn more.
USA.gov is the U.S. Government's official Web portal to all Federal, state and local government Web resources and services.
Facebook
NWS on Facebook

Important Change Regarding the AAWU Web Presence

 

Over the last several months, the AAWU has been working to navigate its webpages to a nationally supported server. Security, as well as other needs, have necessitated the change.  We have been given an extension for the site changeover while we diligently work at addressing feedback received. As of July 14, 2017, aawu.arh.noaa.gov will be discontinued. The new AAWU web address is weather.gov/aawu. It is now live and will run in-parallel with the old site until it is discontinued on July 14, 2017. Please continue to send any feedback or questions regarding the new webpages to nws.ar.aawu.webauthors@noaa.gov.  Thank you for your patience during this time of transition.
AAWU Home :: Display TAF Add Bookmark
TAF PAGS 240526Z 2406/2506  VRB03KT 5SM -RA BR BKN004 OVC020
     FM240900 VRB03KT 3SM RA BR BKN004 OVC020
     FM242200 17008KT P6SM -SHRA OVC012
     FM250200 16005KT P6SM -SHRA FEW005 OVC025
      AMD LTD TO CLD VIS AND WIND=

2598
FTAK31 PAJN 240526
TAFAJN
TAF

SPECI PAGS 240228Z AUTO 00000KT 9SM -RA SCT004 BKN009 OVC020 11/11 A2973 RMK AO2 P0000= METAR PAGS 240256Z AUTO 00000KT 7SM -RA SCT002 BKN009 11/11 A2973 RMK AO2 SLP068 P0001 60002 T01110111 56012= SPECI PAGS 240320Z AUTO 00000KT 4SM -RA BR FEW002 SCT009 11/11 A2973 RMK AO2 P0000= SPECI PAGS 240328Z AUTO 00000KT 5SM -RA BR SCT004 BKN009 11/11 A2973 RMK AO2 P0000= SPECI PAGS 240340Z AUTO 00000KT 5SM -RA BR BKN004 11/11 A2973 RMK AO2 CIG 002V007 P0000= METAR PAGS 240356Z AUTO 00000KT 5SM -RA BR SCT004 11/11 A2972 RMK AO2 SLP066 P0001 T01110106= METAR PAGS 240456Z AUTO 00000KT 5SM -RA BR FEW049 11/11 A2972 RMK AO2 SLP064 P0000 T01060106= PAGS 240505Z AUTO 00000KT 5SM -RA BR FEW003 SCT100 11/11 A2972 RMK AO2 P0001= SPECI PAGS 240518Z AUTO 00000KT 8SM -RA BKN003 BKN015 11/11 A2972 RMK AO2 P0001= METAR PAGS 240556Z AUTO 00000KT 9SM -RA OVC003 11/11 A2971 RMK AO2 SLP062 P0002 60005 T01060106 10117 20106 58003= METAR PAGS 240656Z AUTO 00000KT 10SM -RA BKN005 BKN019 OVC024 11/10 A2971 RMK AO2 SLP062 P0003 T01060100= SPECI PAGS 240724Z AUTO 00000KT 10SM -RA SCT005 OVC021 11/10 A2971 RMK AO2 P0001= METAR PAGS 240756Z AUTO 00000KT 10SM -RA OVC019 11/10 A2972 RMK AO2 SLP064 P0001 T01060100= SPECI PAGS 240808Z AUTO 00000KT 8SM -RA FEW006 SCT012 OVC019 11/10 A2972 RMK AO2 P0001= SPECI PAGS 240828Z AUTO 00000KT 7SM -RA SCT006 BKN012 OVC030 11/10 A2972 RMK AO2 P0002=
 Alaska TAF Map

NOAA's National Weather Service
Alaska Aviation Weather Unit
6930 Sand Lake Road
Anchorage, AK 99502-1845
Disclaimer
Credits
Glossary
Privacy Policy
About Us
Career Opportunities
Contact AAWU Internet Services Site last modified: April, 17th 2012